Time;durP1;ratioP1;P1;durP2;ratioP2;P2;SDS_P1;SDS_P2;PMS_P1;PMS_P2;Temp;Humidity;BMP_temperature;BMP_pressure;BME280_temperature;BME280_humidity;BME280_pressure;Samples;Min_cycle;Max_cycle;Signal;HPM_P1;HPM_P2
2022/04/06 00:00:44;;;;;;;52.37;9.13;;;;;;;;;;5008753;28;20184;-51
2022/04/06 00:03:10;;;;;;;69.27;12.30;;;;;;;;;;5009730;28;20200;-51
2022/04/06 00:05:36;;;;;;;75.00;12.93;;;;;;;;;;5006796;28;20684;-51
2022/04/06 00:08:02;;;;;;;134.50;22.47;;;;;;;;;;5003960;28;20226;-51
2022/04/06 00:10:31;;;;;;;83.07;14.37;;;;;;;;;;5013540;28;20542;-51
2022/04/06 00:12:57;;;;;;;79.17;13.50;;;;;;;;;;5005840;28;20216;-51
2022/04/06 00:15:23;;;;;;;62.07;10.80;;;;;;;;;;5009090;28;20448;-51
2022/04/06 00:17:49;;;;;;;62.30;10.87;;;;;;;;;;5006106;28;20291;-51
2022/04/06 00:20:15;;;;;;;30.77;5.83;;;;;;;;;;5013047;28;20275;-51
2022/04/06 00:22:41;;;;;;;66.93;12.07;;;;;;;;;;5006389;28;20185;-51
2022/04/06 00:25:08;;;;;;;69.00;11.97;;;;;;;;;;5014457;28;20307;-51
2022/04/06 00:27:34;;;;;;;83.17;14.27;;;;;;;;;;5003346;28;20279;-51
2022/04/06 00:30:00;;;;;;;61.97;11.17;;;;;;;;;;5004437;28;20184;-51
2022/04/06 00:32:26;;;;;;;93.87;16.57;;;;;;;;;;5010750;28;20681;-51
2022/04/06 00:37:37;;;;;;;66.37;11.43;;;;;;;;;;5008946;28;20679;-51
2022/04/06 00:40:04;;;;;;;49.97;9.00;;;;;;;;;;5010175;28;20191;-51
2022/04/06 00:42:29;;;;;;;69.43;12.30;;;;;;;;;;5011145;28;20180;-51
2022/04/06 00:44:55;;;;;;;110.67;18.77;;;;;;;;;;5007546;28;20238;-51
2022/04/06 00:47:21;;;;;;;124.97;21.10;;;;;;;;;;5005067;28;20188;-51
2022/04/06 00:49:47;;;;;;;93.30;16.20;;;;;;;;;;5004121;28;20192;-51
2022/04/06 00:52:14;;;;;;;77.57;13.33;;;;;;;;;;5004286;28;20240;-51
2022/04/06 00:54:40;;;;;;;54.37;9.50;;;;;;;;;;5006571;28;20219;-51
2022/04/06 00:57:06;;;;;;;57.70;10.27;;;;;;;;;;5012740;28;20204;-51
2022/04/06 00:59:32;;;;;;;52.40;9.57;;;;;;;;;;5008987;28;20180;-51
2022/04/06 01:01:59;;;;;;;125.13;21.43;;;;;;;;;;5013897;28;20262;-51
2022/04/06 01:04:25;;;;;;;69.37;12.40;;;;;;;;;;5007387;28;20573;-51
2022/04/06 01:06:52;;;;;;;64.80;11.23;;;;;;;;;;5008773;28;20263;-51
2022/04/06 01:09:19;;;;;;;66.27;11.57;;;;;;;;;;5009217;28;20273;-51
2022/04/06 01:11:45;;;;;;;55.43;9.90;;;;;;;;;;5011507;28;20193;-51
2022/04/06 01:14:12;;;;;;;60.33;10.70;;;;;;;;;;5017732;28;20477;-51
2022/04/06 01:16:39;;;;;;;71.10;12.07;;;;;;;;;;5011275;28;20223;-51
2022/04/06 01:19:05;;;;;;;121.07;19.90;;;;;;;;;;5010671;28;20184;-51
2022/04/06 01:21:31;;;;;;;84.83;14.40;;;;;;;;;;5008378;28;20188;-51
2022/04/06 01:23:57;;;;;;;53.60;9.40;;;;;;;;;;5013295;28;20185;-51
2022/04/06 01:26:24;;;;;;;59.27;10.33;;;;;;;;;;5013773;28;20205;-51
2022/04/06 01:28:50;;;;;;;84.27;14.47;;;;;;;;;;5012660;28;20211;-51
2022/04/06 01:31:16;;;;;;;126.20;20.97;;;;;;;;;;5007051;28;20218;-51
2022/04/06 01:33:42;;;;;;;109.90;18.60;;;;;;;;;;5005710;28;20306;-51
2022/04/06 01:36:08;;;;;;;77.17;13.00;;;;;;;;;;5005664;28;20204;-51
2022/04/06 01:38:35;;;;;;;104.53;17.70;;;;;;;;;;5011531;28;20220;-51
2022/04/06 01:41:01;;;;;;;48.40;8.83;;;;;;;;;;5010157;28;20177;-51
2022/04/06 01:43:27;;;;;;;88.97;15.13;;;;;;;;;;5007545;28;20193;-51
2022/04/06 01:45:53;;;;;;;95.67;16.23;;;;;;;;;;5002674;28;20239;-51
2022/04/06 01:48:19;;;;;;;58.77;10.53;;;;;;;;;;5008558;28;20188;-51
2022/04/06 01:53:31;;;;;;;122.80;21.07;;;;;;;;;;5006292;28;20362;-51
2022/04/06 01:55:57;;;;;;;62.33;11.00;;;;;;;;;;5012737;28;20200;-51
2022/04/06 01:58:23;;;;;;;46.53;8.33;;;;;;;;;;5010521;28;20176;-51
2022/04/06 02:00:49;;;;;;;66.10;11.37;;;;;;;;;;5011750;28;20188;-51
2022/04/06 02:03:15;;;;;;;84.70;14.70;;;;;;;;;;5006628;28;20223;-51
2022/04/06 02:05:41;;;;;;;49.70;8.97;;;;;;;;;;5003915;28;20296;-51
2022/04/06 02:08:07;;;;;;;153.10;25.27;;;;;;;;;;5010631;28;20199;-51
2022/04/06 02:10:33;;;;;;;78.27;13.33;;;;;;;;;;5014811;28;20196;-51
2022/04/06 02:13:00;;;;;;;88.20;14.97;;;;;;;;;;4998011;28;20185;-51
2022/04/06 02:15:27;;;;;;;79.73;13.30;;;;;;;;;;5012476;28;20255;-51
2022/04/06 02:17:54;;;;;;;64.60;11.30;;;;;;;;;;5011943;28;20888;-51
2022/04/06 02:20:20;;;;;;;72.50;12.70;;;;;;;;;;5008877;28;20629;-51
2022/04/06 02:22:46;;;;;;;67.73;11.57;;;;;;;;;;5005939;28;20176;-51
2022/04/06 02:25:12;;;;;;;109.50;18.83;;;;;;;;;;5007875;28;20429;-51
2022/04/06 02:27:48;;;;;;;132.07;22.10;;;;;;;;;;5006879;28;22806;-51
2022/04/06 02:30:15;;;;;;;98.40;16.63;;;;;;;;;;5011451;28;20188;-51
2022/04/06 02:32:41;;;;;;;76.70;13.20;;;;;;;;;;5004416;28;20248;-51
2022/04/06 02:35:07;;;;;;;83.43;14.23;;;;;;;;;;5009137;28;20481;-51
2022/04/06 02:37:33;;;;;;;78.10;13.43;;;;;;;;;;5007612;28;20192;-51
2022/04/06 02:39:58;;;;;;;35.77;6.53;;;;;;;;;;5014312;28;20196;-51
2022/04/06 02:42:24;;;;;;;82.90;14.57;;;;;;;;;;5004721;28;20242;-51
2022/04/06 02:44:50;;;;;;;81.20;14.03;;;;;;;;;;5005937;28;20182;-51
2022/04/06 02:47:16;;;;;;;68.43;12.07;;;;;;;;;;5010272;28;20530;-51
2022/04/06 02:49:42;;;;;;;82.60;14.13;;;;;;;;;;5009790;28;20537;-51
2022/04/06 02:52:08;;;;;;;88.37;15.37;;;;;;;;;;5001835;28;20188;-51
2022/04/06 02:54:35;;;;;;;54.33;9.60;;;;;;;;;;5006267;28;20604;-51
2022/04/06 02:57:00;;;;;;;59.73;10.77;;;;;;;;;;5009287;28;20201;-51
2022/04/06 02:59:26;;;;;;;80.67;13.77;;;;;;;;;;5004749;28;20211;-51
2022/04/06 03:01:52;;;;;;;129.90;22.20;;;;;;;;;;5006044;28;20218;-51
2022/04/06 03:04:18;;;;;;;95.00;16.27;;;;;;;;;;5005527;28;20200;-51
2022/04/06 03:06:44;;;;;;;80.53;13.97;;;;;;;;;;5008299;28;20295;-51
2022/04/06 03:09:10;;;;;;;42.87;7.87;;;;;;;;;;5015124;28;20676;-51
2022/04/06 03:11:36;;;;;;;69.10;12.17;;;;;;;;;;5014603;28;20603;-51
2022/04/06 03:14:02;;;;;;;80.70;13.97;;;;;;;;;;5003968;28;20739;-52
2022/04/06 03:16:28;;;;;;;70.87;12.37;;;;;;;;;;5011916;28;20270;-51
2022/04/06 03:18:54;;;;;;;55.53;10.00;;;;;;;;;;5010095;28;20756;-51
2022/04/06 03:21:20;;;;;;;66.50;11.67;;;;;;;;;;5009283;28;20188;-51
2022/04/06 03:23:46;;;;;;;105.30;18.17;;;;;;;;;;5007096;28;20809;-51
2022/04/06 03:26:12;;;;;;;66.77;11.67;;;;;;;;;;5010785;28;20393;-52
2022/04/06 03:28:38;;;;;;;123.03;20.30;;;;;;;;;;5005289;28;20185;-51
2022/04/06 03:31:05;;;;;;;87.23;14.80;;;;;;;;;;5005602;28;20882;-51
2022/04/06 03:33:31;;;;;;;79.53;13.90;;;;;;;;;;5006842;28;20236;-51
2022/04/06 03:35:57;;;;;;;48.43;8.83;;;;;;;;;;5005385;28;20223;-51
2022/04/06 03:38:23;;;;;;;76.20;13.27;;;;;;;;;;5013852;28;20184;-51
2022/04/06 03:40:49;;;;;;;101.20;17.37;;;;;;;;;;5010628;28;20192;-51
2022/04/06 03:43:15;;;;;;;84.47;14.53;;;;;;;;;;5012399;28;20184;-51
2022/04/06 03:45:41;;;;;;;72.80;12.83;;;;;;;;;;5006470;28;20812;-49
2022/04/06 03:48:07;;;;;;;58.97;10.50;;;;;;;;;;5022402;28;20322;-50
2022/04/06 03:50:33;;;;;;;60.80;10.90;;;;;;;;;;5013585;28;20234;-50
2022/04/06 03:52:59;;;;;;;61.03;10.57;;;;;;;;;;5017783;28;20564;-50
2022/04/06 03:55:25;;;;;;;70.70;12.27;;;;;;;;;;5016511;28;20671;-50
2022/04/06 03:57:51;;;;;;;72.83;12.37;;;;;;;;;;5012838;28;20188;-50
2022/04/06 04:00:18;;;;;;;77.57;13.20;;;;;;;;;;5018224;28;20184;-50
2022/04/06 04:02:44;;;;;;;67.00;11.57;;;;;;;;;;5008935;28;20463;-50
2022/04/06 04:05:10;;;;;;;109.27;18.43;;;;;;;;;;5001752;28;20212;-50
2022/04/06 04:07:39;;;;;;;81.13;13.77;;;;;;;;;;5012150;28;20553;-50
2022/04/06 04:10:06;;;;;;;76.17;13.27;;;;;;;;;;5011031;28;20534;-50
2022/04/06 04:12:33;;;;;;;139.37;22.97;;;;;;;;;;5005600;28;20723;-50
2022/04/06 04:14:59;;;;;;;92.17;15.63;;;;;;;;;;5003531;28;20274;-50
2022/04/06 04:17:25;;;;;;;106.73;17.97;;;;;;;;;;5011285;28;20189;-50
2022/04/06 04:19:50;;;;;;;117.23;19.53;;;;;;;;;;5007377;28;20660;-50
2022/04/06 04:22:16;;;;;;;42.33;7.87;;;;;;;;;;5015178;28;20280;-50
2022/04/06 04:24:42;;;;;;;110.37;18.20;;;;;;;;;;5007041;28;20196;-50
2022/04/06 04:27:08;;;;;;;51.63;9.07;;;;;;;;;;5012848;28;20210;-50
2022/04/06 04:29:34;;;;;;;106.50;18.07;;;;;;;;;;5006628;28;20224;-50
2022/04/06 04:32:00;;;;;;;126.67;21.43;;;;;;;;;;5004330;28;26264;-52
2022/04/06 04:34:26;;;;;;;171.40;28.43;;;;;;;;;;5005372;28;20212;-50
2022/04/06 04:36:53;;;;;;;95.23;15.83;;;;;;;;;;5009683;28;20569;-50
2022/04/06 04:39:19;;;;;;;101.70;17.37;;;;;;;;;;5012972;28;20181;-50
2022/04/06 04:41:45;;;;;;;114.10;19.20;;;;;;;;;;5013319;28;20545;-50
2022/04/06 04:44:11;;;;;;;102.37;17.47;;;;;;;;;;5005681;28;20275;-50
2022/04/06 04:46:37;;;;;;;83.93;14.43;;;;;;;;;;5014090;28;20588;-50
2022/04/06 04:49:03;;;;;;;115.60;19.03;;;;;;;;;;5015668;28;20280;-50
2022/04/06 04:51:29;;;;;;;81.13;13.87;;;;;;;;;;5003648;28;20184;-50
2022/04/06 04:53:57;;;;;;;76.93;13.00;;;;;;;;;;5014382;28;20211;-50
2022/04/06 04:56:24;;;;;;;85.77;14.23;;;;;;;;;;5008781;28;20292;-50
2022/04/06 04:58:50;;;;;;;109.10;17.73;;;;;;;;;;5009382;28;20541;-50
2022/04/06 05:01:16;;;;;;;92.80;15.60;;;;;;;;;;5007316;28;20184;-50
2022/04/06 05:03:42;;;;;;;100.80;16.57;;;;;;;;;;5008758;28;20363;-50
2022/04/06 05:06:08;;;;;;;91.70;15.17;;;;;;;;;;5008460;28;20204;-50
2022/04/06 05:08:34;;;;;;;58.10;10.13;;;;;;;;;;5020651;28;20263;-50
2022/04/06 05:11:00;;;;;;;53.67;9.23;;;;;;;;;;5012274;28;20287;-50
2022/04/06 05:13:26;;;;;;;91.00;15.23;;;;;;;;;;5017408;28;20293;-50
2022/04/06 05:15:52;;;;;;;84.77;14.40;;;;;;;;;;5015774;28;20319;-50
2022/04/06 05:18:18;;;;;;;94.83;15.73;;;;;;;;;;5011729;28;20231;-50
2022/04/06 05:20:44;;;;;;;88.63;14.87;;;;;;;;;;5009276;28;20204;-50
2022/04/06 05:23:10;;;;;;;83.90;14.30;;;;;;;;;;5007552;28;20295;-52
2022/04/06 05:25:36;;;;;;;86.80;14.30;;;;;;;;;;5013231;28;22966;-52
2022/04/06 05:28:02;;;;;;;84.80;14.33;;;;;;;;;;5007949;28;21295;-52
2022/04/06 05:30:30;;;;;;;94.40;15.50;;;;;;;;;;5012646;28;20192;-52
2022/04/06 05:32:57;;;;;;;205.37;32.23;;;;;;;;;;5004443;28;20457;-53
2022/04/06 05:35:24;;;;;;;187.90;29.97;;;;;;;;;;4990615;28;20207;-52
2022/04/06 05:37:50;;;;;;;120.43;19.87;;;;;;;;;;5008387;28;20641;-52
2022/04/06 05:40:16;;;;;;;120.27;19.60;;;;;;;;;;5002677;28;20237;-52
2022/04/06 05:42:42;;;;;;;92.33;15.43;;;;;;;;;;5006126;28;20209;-52
2022/04/06 05:45:09;;;;;;;149.43;24.87;;;;;;;;;;4997229;28;20220;-52
2022/04/06 05:47:35;;;;;;;101.50;16.63;;;;;;;;;;5002724;28;20257;-52
2022/04/06 05:50:02;;;;;;;141.20;23.00;;;;;;;;;;5002221;28;20199;-52
2022/04/06 05:52:28;;;;;;;74.80;12.63;;;;;;;;;;5002137;28;20192;-52
2022/04/06 05:54:54;;;;;;;182.90;29.73;;;;;;;;;;4998249;28;20256;-53
2022/04/06 05:57:21;;;;;;;63.20;10.63;;;;;;;;;;5005024;28;20651;-52
2022/04/06 05:59:47;;;;;;;157.77;25.20;;;;;;;;;;5005728;28;20608;-52
2022/04/06 06:02:13;;;;;;;97.80;16.30;;;;;;;;;;4995333;28;20577;-52
2022/04/06 06:04:39;;;;;;;162.27;26.67;;;;;;;;;;4999927;28;20921;-52
2022/04/06 06:07:05;;;;;;;139.97;22.63;;;;;;;;;;5005044;28;20205;-52
2022/04/06 06:09:31;;;;;;;113.83;18.73;;;;;;;;;;5005417;28;20184;-52
2022/04/06 06:11:58;;;;;;;152.20;25.17;;;;;;;;;;4996980;28;20287;-52
2022/04/06 06:14:24;;;;;;;71.10;12.07;;;;;;;;;;5000368;28;20212;-53
2022/04/06 06:16:50;;;;;;;107.13;17.50;;;;;;;;;;5007094;28;20208;-52
2022/04/06 06:19:17;;;;;;;208.47;33.37;;;;;;;;;;5006347;28;20185;-52
2022/04/06 06:21:42;;;;;;;120.55;20.25;;;;;;;;;;4994488;28;20437;-52
2022/04/06 06:24:08;;;;;;;137.90;22.80;;;;;;;;;;4995850;28;20188;-53
2022/04/06 06:26:35;;;;;;;80.57;13.07;;;;;;;;;;5007568;28;20824;-52
2022/04/06 06:29:01;;;;;;;120.13;19.43;;;;;;;;;;4999069;28;20188;-50
2022/04/06 06:31:31;;;;;;;159.20;24.83;;;;;;;;;;5015304;28;20192;-50
2022/04/06 06:33:57;;;;;;;231.70;39.47;;;;;;;;;;4971226;28;20759;-49
2022/04/06 06:36:23;;;;;;;175.13;28.23;;;;;;;;;;4987136;28;20200;-49
2022/04/06 06:38:53;;;;;;;111.93;16.83;;;;;;;;;;5001449;28;20215;-49
2022/04/06 06:41:20;;;;;;;116.50;18.33;;;;;;;;;;5002386;28;20185;-49
2022/04/06 06:43:48;;;;;;;57.03;9.30;;;;;;;;;;5005912;28;20576;-50
2022/04/06 06:46:14;;;;;;;62.10;10.60;;;;;;;;;;5009550;28;20200;-51
2022/04/06 06:48:40;;;;;;;154.33;24.60;;;;;;;;;;5010893;28;25443;-50
2022/04/06 06:51:06;;;;;;;93.20;14.97;;;;;;;;;;5008242;28;20202;-50
2022/04/06 06:53:32;;;;;;;143.37;22.97;;;;;;;;;;5009299;28;20618;-53
2022/04/06 06:55:58;;;;;;;79.03;13.23;;;;;;;;;;5009059;28;20609;-52
2022/04/06 06:58:24;;;;;;;211.03;35.73;;;;;;;;;;4999047;28;20558;-53
2022/04/06 07:00:50;;;;;;;208.87;34.00;;;;;;;;;;5001158;28;20278;-53
2022/04/06 07:03:16;;;;;;;101.60;16.93;;;;;;;;;;5001881;28;20636;-52
2022/04/06 07:05:42;;;;;;;193.73;33.87;;;;;;;;;;4994784;28;20211;-51
2022/04/06 07:08:08;;;;;;;113.50;18.40;;;;;;;;;;5002989;28;20590;-51
2022/04/06 07:10:34;;;;;;;70.93;12.33;;;;;;;;;;5007429;28;20191;-50
2022/04/06 07:13:00;;;;;;;144.47;23.30;;;;;;;;;;5009498;28;20673;-50
2022/04/06 07:15:26;;;;;;;115.13;19.10;;;;;;;;;;4998202;28;20219;-51
2022/04/06 07:17:53;;;;;;;187.53;31.37;;;;;;;;;;4995171;28;20192;-52
2022/04/06 07:20:19;;;;;;;140.60;23.50;;;;;;;;;;5004414;28;20189;-51
2022/04/06 07:22:45;;;;;;;103.53;17.40;;;;;;;;;;5025365;28;20211;-53
2022/04/06 07:25:11;;;;;;;51.97;9.17;;;;;;;;;;5019459;28;20224;-52
2022/04/06 07:27:37;;;;;;;59.53;10.70;;;;;;;;;;5025023;28;20189;-53
2022/04/06 07:30:04;;;;;;;64.33;11.50;;;;;;;;;;5022019;28;20180;-53
2022/04/06 07:32:31;;;;;;;66.83;11.97;;;;;;;;;;5023802;28;20661;-53
2022/04/06 07:34:57;;;;;;;65.13;11.50;;;;;;;;;;5025582;28;20299;-52
2022/04/06 07:37:23;;;;;;;55.60;10.13;;;;;;;;;;5027049;28;20319;-53
2022/04/06 07:39:49;;;;;;;50.07;9.23;;;;;;;;;;5018842;28;20195;-53
2022/04/06 07:42:15;;;;;;;55.53;10.07;;;;;;;;;;5026113;28;20181;-53
2022/04/06 07:44:41;;;;;;;65.40;11.83;;;;;;;;;;5022286;28;20277;-53
2022/04/06 07:47:07;;;;;;;72.87;13.17;;;;;;;;;;5023757;28;20576;-53
2022/04/06 07:49:33;;;;;;;57.27;10.23;;;;;;;;;;5027560;28;20242;-52
2022/04/06 07:51:59;;;;;;;49.70;9.13;;;;;;;;;;5023605;28;20275;-53
2022/04/06 07:54:25;;;;;;;47.00;8.80;;;;;;;;;;5025676;28;20617;-53
2022/04/06 07:56:50;;;;;;;71.23;12.63;;;;;;;;;;5024559;28;20204;-52
2022/04/06 07:59:16;;;;;;;57.37;10.50;;;;;;;;;;5022240;28;20176;-53
2022/04/06 08:01:42;;;;;;;35.77;6.60;;;;;;;;;;5027528;28;20261;-52
2022/04/06 08:04:08;;;;;;;74.37;13.03;;;;;;;;;;5018419;28;20258;-53
2022/04/06 08:06:34;;;;;;;56.03;10.17;;;;;;;;;;5029249;28;20621;-53
2022/04/06 08:09:02;;;;;;;67.20;11.83;;;;;;;;;;5027994;28;20215;-53
2022/04/06 08:11:28;;;;;;;71.30;12.90;;;;;;;;;;5026616;28;20172;-52
2022/04/06 08:13:54;;;;;;;69.40;12.30;;;;;;;;;;5026044;28;20551;-52
2022/04/06 08:16:20;;;;;;;55.63;9.90;;;;;;;;;;5023805;28;20204;-53
2022/04/06 08:18:46;;;;;;;78.53;14.23;;;;;;;;;;5029787;28;20242;-53
2022/04/06 08:21:12;;;;;;;91.80;16.13;;;;;;;;;;5023113;28;20186;-53
2022/04/06 08:23:38;;;;;;;61.43;10.73;;;;;;;;;;5023387;28;20287;-53
2022/04/06 08:26:04;;;;;;;45.37;8.53;;;;;;;;;;5027441;28;20478;-53
2022/04/06 08:28:30;;;;;;;63.03;11.43;;;;;;;;;;5021548;28;20273;-53
2022/04/06 08:30:56;;;;;;;47.80;9.03;;;;;;;;;;5021340;28;20184;-53
2022/04/06 08:33:22;;;;;;;85.13;14.80;;;;;;;;;;5020720;28;20208;-53
2022/04/06 08:35:48;;;;;;;49.83;9.07;;;;;;;;;;5026756;28;20250;-53
2022/04/06 08:38:15;;;;;;;65.50;11.63;;;;;;;;;;5022713;28;20197;-53
2022/04/06 08:40:42;;;;;;;51.57;9.60;;;;;;;;;;5024217;28;20176;-53
2022/04/06 08:43:09;;;;;;;71.57;12.87;;;;;;;;;;5024878;28;20207;-53
2022/04/06 08:45:37;;;;;;;85.97;15.60;;;;;;;;;;5025021;28;20708;-53
2022/04/06 08:48:05;;;;;;;63.27;11.33;;;;;;;;;;5029030;28;20180;-53
2022/04/06 08:50:31;;;;;;;64.57;11.80;;;;;;;;;;5022847;28;20181;-53
2022/04/06 08:52:57;;;;;;;52.30;9.30;;;;;;;;;;5026558;28;20187;-53
2022/04/06 08:55:24;;;;;;;38.97;7.33;;;;;;;;;;5020796;28;20298;-53
2022/04/06 08:57:50;;;;;;;72.93;12.73;;;;;;;;;;5024895;28;20659;-53
2022/04/06 09:00:18;;;;;;;75.30;13.17;;;;;;;;;;5021503;28;20187;-53
2022/04/06 09:02:44;;;;;;;54.03;10.03;;;;;;;;;;5021108;28;20192;-53
2022/04/06 09:05:11;;;;;;;73.77;13.33;;;;;;;;;;5016586;28;20219;-54
2022/04/06 09:07:38;;;;;;;68.43;12.40;;;;;;;;;;5026539;28;20254;-53
2022/04/06 09:10:05;;;;;;;80.73;14.07;;;;;;;;;;5018198;28;20518;-54
2022/04/06 09:12:30;;;;;;;55.10;9.97;;;;;;;;;;5025285;28;20176;-53
2022/04/06 09:15:06;;;;;;;70.60;12.53;;;;;;;;;;5025909;28;20741;-53
2022/04/06 09:17:34;;;;;;;61.80;11.27;;;;;;;;;;5029014;28;20637;-53
2022/04/06 09:20:00;;;;;;;65.60;11.67;;;;;;;;;;5017239;28;20184;-54
2022/04/06 09:22:26;;;;;;;57.70;10.53;;;;;;;;;;5021551;28;20874;-53
2022/04/06 09:24:56;;;;;;;70.00;12.43;;;;;;;;;;5022058;28;20192;-53
2022/04/06 09:27:22;;;;;;;61.37;11.17;;;;;;;;;;5024279;28;20225;-53
2022/04/06 09:29:52;;;;;;;50.57;9.57;;;;;;;;;;5024031;28;20184;-53
2022/04/06 09:32:17;;;;;;;60.87;11.07;;;;;;;;;;5023762;28;20188;-53
2022/04/06 09:34:46;;;;;;;65.17;11.83;;;;;;;;;;5017376;28;20319;-53
2022/04/06 09:37:26;;;;;;;70.03;12.77;;;;;;;;;;5025650;28;20200;-53
2022/04/06 09:39:52;;;;;;;65.00;11.87;;;;;;;;;;5026284;28;20621;-53
2022/04/06 09:42:22;;;;;;;50.83;9.53;;;;;;;;;;5023331;28;20726;-53
2022/04/06 09:47:40;;;;;;;62.43;11.37;;;;;;;;;;5026014;28;20253;-53
2022/04/06 09:50:09;;;;;;;54.40;10.33;;;;;;;;;;5027170;28;20455;-53
2022/04/06 09:52:36;;;;;;;58.23;10.63;;;;;;;;;;5021690;28;20246;-52
2022/04/06 09:55:05;;;;;;;70.30;12.63;;;;;;;;;;5025179;28;20231;-53
2022/04/06 09:57:32;;;;;;;82.93;14.17;;;;;;;;;;5026175;28;20522;-53
2022/04/06 09:59:58;;;;;;;76.53;13.33;;;;;;;;;;5019721;28;20225;-53
2022/04/06 10:02:24;;;;;;;79.17;13.97;;;;;;;;;;5019893;28;20176;-53
2022/04/06 10:04:52;;;;;;;91.43;15.87;;;;;;;;;;5018673;28;20199;-53
2022/04/06 10:07:19;;;;;;;59.87;10.77;;;;;;;;;;5020488;28;20196;-54
2022/04/06 10:09:45;;;;;;;76.43;13.20;;;;;;;;;;5017450;28;20863;-54
2022/04/06 10:12:11;;;;;;;82.57;14.23;;;;;;;;;;5012693;28;20204;-54
2022/04/06 10:14:37;;;;;;;138.10;24.03;;;;;;;;;;5015141;28;20215;-54
2022/04/06 10:17:04;;;;;;;90.30;15.90;;;;;;;;;;5008903;28;20208;-53
2022/04/06 10:19:33;;;;;;;99.13;17.30;;;;;;;;;;5012161;28;20201;-53
2022/04/06 10:22:10;;;;;;;121.50;21.03;;;;;;;;;;5014908;28;20208;-53
2022/04/06 10:24:54;;;;;;;127.47;22.37;;;;;;;;;;5013277;28;20175;-53
2022/04/06 10:27:25;;;;;;;120.10;21.30;;;;;;;;;;5010173;28;20272;-54
2022/04/06 10:30:09;;;;;;;111.43;19.73;;;;;;;;;;5017374;28;20609;-54
2022/04/06 10:32:35;;;;;;;138.00;23.87;;;;;;;;;;5018740;28;20188;-54
2022/04/06 10:35:17;;;;;;;112.03;19.73;;;;;;;;;;5014831;28;20659;-53
2022/04/06 10:38:13;;;;;;;82.63;14.90;;;;;;;;;;5017883;28;20230;-54
2022/04/06 10:40:48;;;;;;;83.00;14.57;;;;;;;;;;5018226;28;20181;-53
2022/04/06 10:43:48;;;;;;;84.03;15.03;;;;;;;;;;5012483;28;20600;-53
2022/04/06 10:46:19;;;;;;;103.33;18.10;;;;;;;;;;5016478;28;20603;-53
2022/04/06 10:48:57;;;;;;;94.77;17.27;;;;;;;;;;5015397;28;20176;-54
2022/04/06 10:51:28;;;;;;;89.67;16.50;;;;;;;;;;5017568;28;20260;-54
2022/04/06 10:53:54;;;;;;;129.50;22.87;;;;;;;;;;5017914;28;20207;-53
2022/04/06 10:56:22;;;;;;;93.10;16.57;;;;;;;;;;5018302;28;20212;-54
2022/04/06 10:58:54;;;;;;;111.13;20.20;;;;;;;;;;5013351;28;20207;-54
2022/04/06 11:01:26;;;;;;;151.77;27.53;;;;;;;;;;5008247;28;20572;-52
2022/04/06 11:04:04;;;;;;;163.60;29.07;;;;;;;;;;5003596;28;20857;-52
2022/04/06 11:06:48;;;;;;;86.13;16.30;;;;;;;;;;5016599;28;20287;-52
2022/04/06 11:12:15;;;;;;;147.53;25.60;;;;;;;;;;5009313;28;20278;-52
2022/04/06 11:14:42;;;;;;;100.80;18.07;;;;;;;;;;5013658;28;20246;-52
2022/04/06 11:17:27;;;;;;;131.53;23.20;;;;;;;;;;5007227;28;20462;-52
2022/04/06 11:19:53;;;;;;;123.17;21.87;;;;;;;;;;5006831;28;20194;-52
2022/04/06 11:22:22;;;;;;;101.83;18.37;;;;;;;;;;5010490;28;20235;-52
2022/04/06 11:24:48;;;;;;;93.27;16.50;;;;;;;;;;5010759;28;20616;-52
2022/04/06 11:27:31;;;;;;;140.40;24.20;;;;;;;;;;5018458;28;20193;-52
2022/04/06 11:30:16;;;;;;;93.93;16.63;;;;;;;;;;5014430;28;20556;-52
2022/04/06 11:32:45;;;;;;;96.30;16.63;;;;;;;;;;5014751;28;20289;-52
2022/04/06 11:35:11;;;;;;;136.57;23.27;;;;;;;;;;5012607;28;20254;-52
2022/04/06 11:37:41;;;;;;;130.30;22.97;;;;;;;;;;5002457;28;21334;-51
2022/04/06 11:40:07;;;;;;;104.20;18.37;;;;;;;;;;5016606;28;20184;-52
2022/04/06 11:42:33;;;;;;;126.17;21.87;;;;;;;;;;5012594;28;20192;-52
2022/04/06 11:44:59;;;;;;;140.70;24.57;;;;;;;;;;5008108;28;20188;-52
2022/04/06 11:47:32;;;;;;;126.97;22.10;;;;;;;;;;5019141;28;20184;-52
2022/04/06 11:49:59;;;;;;;180.50;31.48;;;;;;;;;;5015765;28;20188;-52
2022/04/06 11:52:25;;;;;;;121.33;21.10;;;;;;;;;;5014108;28;20189;-52
2022/04/06 11:54:52;;;;;;;111.43;19.87;;;;;;;;;;5011985;28;20623;-52
2022/04/06 11:57:18;;;;;;;155.27;28.10;;;;;;;;;;5017610;28;20226;-52
2022/04/06 11:59:54;;;;;;;80.43;14.50;;;;;;;;;;5020782;28;20185;-52
2022/04/06 12:02:20;;;;;;;124.67;22.07;;;;;;;;;;5014469;28;20190;-52
2022/04/06 12:04:48;;;;;;;172.97;29.93;;;;;;;;;;5010355;28;20279;-52
2022/04/06 12:07:20;;;;;;;85.23;15.83;;;;;;;;;;5012138;28;20200;-52
2022/04/06 12:09:48;;;;;;;143.47;24.90;;;;;;;;;;5013483;28;20190;-52
2022/04/06 12:12:14;;;;;;;129.67;22.30;;;;;;;;;;5012589;28;20185;-52
2022/04/06 12:14:41;;;;;;;112.77;20.30;;;;;;;;;;5009336;28;20215;-52
2022/04/06 12:17:07;;;;;;;115.83;20.60;;;;;;;;;;5008238;28;20288;-52
2022/04/06 12:19:33;;;;;;;156.60;27.27;;;;;;;;;;5005316;28;20645;-52
2022/04/06 12:22:06;;;;;;;127.80;22.43;;;;;;;;;;5010277;28;20183;-52
2022/04/06 12:24:40;;;;;;;103.37;17.77;;;;;;;;;;5009679;28;20185;-52
2022/04/06 12:27:06;;;;;;;143.63;24.43;;;;;;;;;;5003041;28;20204;-52
2022/04/06 12:29:35;;;;;;;119.33;20.43;;;;;;;;;;5003684;28;20612;-52
2022/04/06 12:32:02;;;;;;;132.60;23.00;;;;;;;;;;5008506;28;20637;-52
2022/04/06 12:34:32;;;;;;;86.00;15.23;;;;;;;;;;5012493;28;20267;-52
2022/04/06 12:36:58;;;;;;;92.63;16.23;;;;;;;;;;5007471;28;20751;-52
2022/04/06 12:39:24;;;;;;;126.13;22.13;;;;;;;;;;5009657;28;20230;-52
2022/04/06 12:41:59;;;;;;;140.37;24.20;;;;;;;;;;5007473;28;20224;-52
2022/04/06 12:44:26;;;;;;;132.23;22.87;;;;;;;;;;5002316;28;20284;-52
2022/04/06 12:46:52;;;;;;;80.73;14.10;;;;;;;;;;5015503;28;20724;-52
2022/04/06 12:49:29;;;;;;;159.47;27.23;;;;;;;;;;5011427;28;20191;-52
2022/04/06 12:52:05;;;;;;;168.87;28.83;;;;;;;;;;5007594;28;20212;-52
2022/04/06 12:54:31;;;;;;;175.67;31.50;;;;;;;;;;5000367;28;20219;-52
2022/04/06 12:57:06;;;;;;;58.80;10.70;;;;;;;;;;5005671;28;20211;-52
2022/04/06 12:59:37;;;;;;;84.60;15.63;;;;;;;;;;5013973;28;20230;-52
2022/04/06 13:02:04;;;;;;;103.80;18.77;;;;;;;;;;5015254;28;20204;-52
2022/04/06 13:04:31;;;;;;;124.00;21.67;;;;;;;;;;5007529;28;20196;-52
2022/04/06 13:06:57;;;;;;;120.50;21.33;;;;;;;;;;5004497;28;20200;-52
2022/04/06 13:09:23;;;;;;;132.43;23.23;;;;;;;;;;4999923;28;20797;-52
2022/04/06 13:11:49;;;;;;;140.67;24.23;;;;;;;;;;4990702;28;20189;-52
2022/04/06 13:14:15;;;;;;;146.07;25.87;;;;;;;;;;5006593;28;20287;-52
2022/04/06 13:16:41;;;;;;;131.90;22.80;;;;;;;;;;4998597;28;20322;-52
2022/04/06 13:19:07;;;;;;;147.30;26.30;;;;;;;;;;5008733;28;20186;-52
2022/04/06 13:21:37;;;;;;;132.73;23.47;;;;;;;;;;5005344;28;20227;-52
2022/04/06 13:24:06;;;;;;;68.63;12.63;;;;;;;;;;5010325;28;20573;-52
2022/04/06 13:26:32;;;;;;;94.13;16.30;;;;;;;;;;5011777;28;20300;-52
2022/04/06 13:28:58;;;;;;;81.30;14.67;;;;;;;;;;5000727;28;24226;-52
2022/04/06 13:31:26;;;;;;;158.60;27.10;;;;;;;;;;5007337;28;20284;-52
2022/04/06 13:33:52;;;;;;;49.53;9.27;;;;;;;;;;5010015;28;20212;-52
2022/04/06 13:36:18;;;;;;;47.30;9.00;;;;;;;;;;5013118;28;20208;-53
2022/04/06 13:38:44;;;;;;;174.80;31.17;;;;;;;;;;5000963;28;20189;-53
2022/04/06 13:41:10;;;;;;;120.83;21.87;;;;;;;;;;4999703;28;20191;-53
2022/04/06 13:43:36;;;;;;;127.83;22.93;;;;;;;;;;4999369;28;20281;-53
2022/04/06 13:46:04;;;;;;;117.27;21.03;;;;;;;;;;5007271;28;20205;-53
2022/04/06 13:48:30;;;;;;;284.33;51.53;;;;;;;;;;4994360;28;20707;-53
2022/04/06 13:50:56;;;;;;;99.73;17.87;;;;;;;;;;4999365;28;20239;-53
2022/04/06 13:53:22;;;;;;;121.73;21.40;;;;;;;;;;4999251;28;20186;-53
2022/04/06 13:55:48;;;;;;;74.27;13.03;;;;;;;;;;4996186;28;20277;-53
2022/04/06 13:58:14;;;;;;;94.87;16.97;;;;;;;;;;5000423;28;20258;-53
2022/04/06 14:00:41;;;;;;;200.50;34.23;;;;;;;;;;4995746;28;20281;-53
2022/04/06 14:03:07;;;;;;;179.60;29.80;;;;;;;;;;4996049;28;20204;-53
2022/04/06 14:05:34;;;;;;;127.83;21.17;;;;;;;;;;4995088;28;20230;-53
2022/04/06 14:08:00;;;;;;;122.77;20.67;;;;;;;;;;4998718;28;20192;-53
2022/04/06 14:10:26;;;;;;;88.13;15.57;;;;;;;;;;5008940;28;20275;-53
2022/04/06 14:12:51;;;;;;;202.43;34.67;;;;;;;;;;5002276;28;20718;-53
2022/04/06 14:15:18;;;;;;;289.43;53.47;;;;;;;;;;4980665;28;20220;-53
2022/04/06 14:17:44;;;;;;;144.77;25.37;;;;;;;;;;4996585;28;20184;-53
2022/04/06 14:20:10;;;;;;;155.50;27.43;;;;;;;;;;4997375;28;20250;-54
2022/04/06 14:22:36;;;;;;;126.97;22.50;;;;;;;;;;5003851;28;20242;-53
2022/04/06 14:25:21;;;;;;;65.40;12.10;;;;;;;;;;5015322;28;20192;-53